Celtic Spirit — MSGH4 — position and weather

sailwx.info

Track history (hours):
 
Tides and Currents Weather Stations Pressure Air Temp Water Temp Dewpoint Dewpoint Depression Visibility Wind Speed Wind Dir Waves Ship Positions

Celtic Spirit

Last reported at 2016-May-17 06:32 UTC. Time now 2016-May-27 10:22 UTC.
Position N 17°30' W 062°10'.
Warning: this ship's position is 10 days out of date.

Length 20 m.

Type: Pleasure craft. MMSI: 235010910.

Date/timePositionNaut miles runAvg speedWind from/ knotsBaromVisibWave heightAir tempDewpointWater temp
2016-May-17 06:32N 17°30' W 062°10'6 6.4
2016-May-17 05:33N 17°26' W 062°04'6 5.8
2016-May-17 04:33N 17°23' W 061°59'6 6.0
2016-May-17 03:33N 17°19' W 061°54'7 7.0
2016-May-17 02:33N 17°15' W 061°48'7 6.7
2016-May-17 01:33N 17°11' W 061°43'7 7.4
2016-May-17 00:33N 17°05' W 061°38'6 6.1
2016-May-16 23:33N 17°00' W 061°42'3 3.3
2016-May-16 22:33N 17°01' W 061°46'0 0.0
2016-May-16 21:33N 17°01' W 061°46'0 0.0
2016-May-16 20:33N 17°01' W 061°46'0 0.0
2016-May-16 19:24N 17°01' W 061°46'0 0.0
2016-May-16 18:33N 17°01' W 061°46'0 0.0
2016-May-16 17:30N 17°01' W 061°46'0 0.0
2016-May-16 16:33N 17°01' W 061°46'0 0.0
2016-May-16 15:33N 17°01' W 061°46'0 0.0
2016-May-16 14:30N 17°01' W 061°46'0 0.0
2016-May-16 13:33N 17°01' W 061°46'0 0.0
2016-May-16 12:33N 17°01' W 061°46'0 0.0
2016-May-16 11:33N 17°01' W 061°46'0 0.0
2016-May-16 10:33N 17°01' W 061°46'0 0.0
2016-May-16 09:33N 17°01' W 061°46'0 0.0
2016-May-16 08:30N 17°01' W 061°46'0 0.0
2016-May-16 07:33N 17°01' W 061°46'0 0.0
2016-May-16 06:33N 17°01' W 061°46'0 0.0
2016-May-16 05:33N 17°01' W 061°46'0 0.0
2016-May-16 04:33N 17°01' W 061°46'0 0.0
2016-May-16 03:33N 17°01' W 061°46'0 0.0
2016-May-16 02:33N 17°01' W 061°46'0 0.0
2016-May-16 01:33N 17°01' W 061°46'0 0.0
2016-May-16 00:33N 17°01' W 061°46'0 0.0
2016-May-15 23:33N 17°01' W 061°46'0 0.0
2016-May-15 22:33N 17°01' W 061°46'0 0.0
2016-May-15 21:33N 17°01' W 061°46'0 0.0
2016-May-15 20:33N 17°01' W 061°46'0 0.0
2016-May-15 19:33N 17°01' W 061°46'0 0.0
2016-May-15 18:33N 17°01' W 061°46'0 0.0
2016-May-15 17:33N 17°01' W 061°46'0 0.0
2016-May-15 16:33N 17°01' W 061°46'0 0.0
2016-May-15 15:33N 17°01' W 061°46'0 0.0
2016-May-15 14:33N 17°01' W 061°46'0 0.0
2016-May-15 13:33N 17°01' W 061°46'0 0.0
2016-May-15 12:33N 17°01' W 061°46'0 0.0
2016-May-15 11:33N 17°01' W 061°46'0 0.0
2016-May-15 10:33N 17°01' W 061°46'0 0.0
2016-May-15 09:33N 17°01' W 061°46'0 0.0
2016-May-15 08:33N 17°01' W 061°46'0 0.0
2016-May-15 07:33N 17°01' W 061°46'0 0.0
2016-May-15 06:33N 17°01' W 061°46'0 0.0
2016-May-15 05:33N 17°01' W 061°46'0 0.0
2016-May-15 04:33N 17°01' W 061°46'0 0.0
2016-May-15 03:33N 17°01' W 061°46'0 0.0
2016-May-15 02:33N 17°01' W 061°46'0 0.0
2016-May-15 01:33N 17°01' W 061°46'0 0.0
2016-May-15 00:33N 17°01' W 061°46'0 0.0
2016-May-14 23:33N 17°01' W 061°46'0 0.0
2016-May-14 22:33N 17°01' W 061°46'0 0.0
2016-May-14 21:33N 17°01' W 061°46'0 0.0
2016-May-14 20:33N 17°01' W 061°46'0 0.0
2016-May-14 19:33N 17°01' W 061°46'0 0.0
2016-May-14 18:33N 17°01' W 061°46'0 0.0
2016-May-14 17:33N 17°01' W 061°46'0 0.0
2016-May-14 16:33N 17°01' W 061°46'0 0.0
2016-May-14 15:33N 17°01' W 061°46'0 0.0
2016-May-14 14:33N 17°01' W 061°46'0 0.0
2016-May-14 13:33N 17°01' W 061°46'0 0.0
2016-May-14 12:33N 17°01' W 061°46'0 0.0
2016-May-14 11:33N 17°01' W 061°46'0 0.0
2016-May-14 10:33N 17°01' W 061°46'0 0.0
2016-May-14 09:33N 17°01' W 061°46'0 0.0
2016-May-14 08:33N 17°01' W 061°46'0 0.0
2016-May-14 07:33N 17°01' W 061°46'0 0.0
2016-May-14 06:33N 17°01' W 061°46'0 0.0
2016-May-14 05:33N 17°01' W 061°46'0 0.0
2016-May-14 04:33N 17°01' W 061°46'0 0.0
2016-May-14 03:33N 17°01' W 061°46'0 0.0
2016-May-14 02:33N 17°01' W 061°46'0 0.0
2016-May-14 01:33N 17°01' W 061°46'0 0.0
2016-May-14 00:33N 17°01' W 061°46'0 0.0
2016-May-13 23:33N 17°01' W 061°46'0 0.0
2016-May-13 22:33N 17°01' W 061°46'0 0.0
2016-May-13 21:33N 17°01' W 061°46'0 0.0
2016-May-13 20:33N 17°01' W 061°46'0 0.3
2016-May-13 19:31N 17°00' W 061°46'0 0.0
2016-May-13 18:31N 17°00' W 061°46'0 0.0
2016-May-13 17:31N 17°00' W 061°46'0 0.0
2016-May-13 16:31N 17°00' W 061°46'0 0.0
2016-May-13 15:31N 17°00' W 061°46'0 0.0
2016-May-13 14:31N 17°00' W 061°46'0 0.0
2016-May-13 13:31N 17°00' W 061°46'0 0.0
2016-May-13 12:31N 17°00' W 061°46'0 0.0
2016-May-13 11:31N 17°00' W 061°46'0 0.0
2016-May-13 10:31N 17°00' W 061°46'0 0.0
2016-May-13 09:31N 17°00' W 061°46'0 0.0
2016-May-13 08:31N 17°00' W 061°46'0 0.0
2016-May-13 07:31N 17°00' W 061°46'0 0.0
2016-May-13 06:31N 17°00' W 061°46'0 0.0
2016-May-13 05:31N 17°00' W 061°46'0 0.0
2016-May-13 04:31N 17°00' W 061°46'0 0.0
2016-May-13 03:31N 17°00' W 061°46'0 0.0
2016-May-13 02:28N 17°00' W 061°46'0 0.0
2016-May-13 01:31N 17°00' W 061°46'0 0.0
2016-May-13 00:31N 17°00' W 061°46'0 0.0
2016-May-12 23:31N 17°00' W 061°46'0 0.0
2016-May-12 22:31N 17°00' W 061°46'0 0.0
2016-May-12 21:31N 17°00' W 061°46'0 0.0
2016-May-12 20:31N 17°00' W 061°46'0 0.0
2016-May-12 19:31N 17°00' W 061°46'0 0.0
2016-May-12 18:31N 17°00' W 061°46'0 0.0
2016-May-12 17:31N 17°00' W 061°46'0 0.0
2016-May-12 16:31N 17°00' W 061°46'0 0.0
2016-May-12 15:31N 17°00' W 061°46'0 0.0
2016-May-12 14:32N 17°00' W 061°46'0 0.0
2016-May-12 13:32N 17°00' W 061°46'0 0.0
2016-May-12 12:32N 17°00' W 061°46'0 0.0
2016-May-12 11:32N 17°00' W 061°46'0 0.0
2016-May-12 10:32N 17°00' W 061°46'0 0.0
2016-May-12 09:32N 17°00' W 061°46'0 0.0
2016-May-12 08:32N 17°00' W 061°46'0 0.0
2016-May-12 07:32N 17°00' W 061°46'0 0.0
2016-May-12 06:32N 17°00' W 061°46'0 0.0
2016-May-12 05:32N 17°00' W 061°46'0 0.0
2016-May-12 04:32N 17°00' W 061°46'0 0.0
2016-May-12 03:32N 17°00' W 061°46'0 0.0
2016-May-12 02:32N 17°00' W 061°46'0 0.0
2016-May-12 01:32N 17°00' W 061°46'0 0.0
2016-May-12 00:32N 17°00' W 061°46'0 0.0
2016-May-11 23:32N 17°00' W 061°46'0 0.0
2016-May-11 22:32N 17°00' W 061°46'0 0.0
2016-May-11 21:32N 17°00' W 061°46'0 0.0
2016-May-11 20:32N 17°00' W 061°46'0 0.2
2016-May-11 19:32N 17°00' W 061°46'0 0.0
2016-May-11 18:32N 17°00' W 061°46'0 0.0
2016-May-11 17:32N 17°00' W 061°46'0 0.0
2016-May-11 16:29N 17°00' W 061°46'0 0.0
2016-May-11 15:32N 17°00' W 061°46'0 0.0
2016-May-11 14:32N 17°00' W 061°46'0 0.0
2016-May-11 13:32N 17°00' W 061°46'0 0.0
2016-May-11 12:32N 17°00' W 061°46'0 0.0
2016-May-11 11:32N 17°00' W 061°46'0 0.0
2016-May-11 10:32N 17°00' W 061°46'0 0.0
2016-May-11 09:32N 17°00' W 061°46'0 0.0
2016-May-11 08:29N 17°00' W 061°46'0 0.0
2016-May-11 07:32N 17°00' W 061°46'0 0.0
2016-May-11 06:32N 17°00' W 061°46'0 0.0
2016-May-11 05:32N 17°00' W 061°46'0 0.0
2016-May-11 04:29N 17°00' W 061°46'0 0.0
2016-May-11 03:32N 17°00' W 061°46'0 0.0
2016-May-11 02:32N 17°00' W 061°46'0 0.0
2016-May-11 01:32N 17°00' W 061°46'0 0.0
2016-May-11 00:32N 17°00' W 061°46'0 0.0
2016-May-10 23:32N 17°00' W 061°46'0 0.0
2016-May-10 22:32N 17°00' W 061°46'0 0.0
2016-May-10 21:32N 17°00' W 061°46'0 0.0
2016-May-10 20:32N 17°00' W 061°46'0 0.0
2016-May-10 19:32N 17°00' W 061°46'0 0.0
2016-May-10 18:32N 17°00' W 061°46'0 0.0
2016-May-10 17:32N 17°00' W 061°46'0 0.0
2016-May-10 16:32N 17°00' W 061°46'0 0.0
2016-May-10 15:32N 17°00' W 061°46'0 0.0
2016-May-10 14:32N 17°00' W 061°46'0 0.0
2016-May-10 13:32N 17°00' W 061°46'0 0.0
2016-May-10 12:32N 17°00' W 061°46'0 0.0
2016-May-10 11:32N 17°00' W 061°46'0 0.0
2016-May-10 10:32N 17°00' W 061°46'0 0.0
2016-May-10 09:32N 17°00' W 061°46'0 0.0
2016-May-10 08:32N 17°00' W 061°46'0 0.0
2016-May-10 07:32N 17°00' W 061°46'0 0.0
2016-May-10 06:32N 17°00' W 061°46'0 0.0
2016-May-10 05:32N 17°00' W 061°46'0 0.0
2016-May-10 04:32N 17°00' W 061°46'0 0.0
2016-May-10 03:32N 17°00' W 061°46'0 0.0
2016-May-10 02:32N 17°00' W 061°46'0 0.0
2016-May-10 01:32N 17°00' W 061°46'0 0.0
2016-May-10 00:32N 17°00' W 061°46'0 0.0
2016-May-09 23:32N 17°00' W 061°46'0 0.0
2016-May-09 22:32N 17°00' W 061°46'0 0.0
2016-May-09 21:32N 17°00' W 061°46'0 0.0
2016-May-09 20:32N 17°00' W 061°46'0 0.0
2016-May-09 19:32N 17°00' W 061°46'0 0.0
2016-May-09 18:32N 17°00' W 061°46'0 0.0
2016-May-09 17:32N 17°00' W 061°46'0 0.0
2016-May-09 16:32N 17°00' W 061°46'0 0.0
2016-May-09 15:32N 17°00' W 061°46'0 0.0
2016-May-09 14:32N 17°00' W 061°46'0 0.0
2016-May-09 13:32N 17°00' W 061°46'0 0.0
2016-May-09 12:32N 17°00' W 061°46'0 0.0
2016-May-09 11:32N 17°00' W 061°46'0 0.0
2016-May-09 10:32N 17°00' W 061°46'0 0.0
2016-May-09 09:32N 17°00' W 061°46'0 0.0
2016-May-09 08:32N 17°00' W 061°46'0 0.0
2016-May-09 07:32N 17°00' W 061°46'0 0.0
2016-May-09 06:32N 17°00' W 061°46'0 0.0
2016-May-09 05:32N 17°00' W 061°46'0 0.0
2016-May-09 04:32N 17°00' W 061°46'0 0.0
2016-May-09 03:32N 17°00' W 061°46'0 0.0
2016-May-09 02:32N 17°00' W 061°46'0 0.0
2016-May-09 01:32N 17°00' W 061°46'0 0.0
2016-May-09 00:32N 17°00' W 061°46'0 0.0
2016-May-08 23:32N 17°00' W 061°46'0 0.0
2016-May-08 22:32N 17°00' W 061°46'0 0.0
2016-May-08 21:32N 17°00' W 061°46'0 0.0
2016-May-08 20:32N 17°00' W 061°46'0 0.0
2016-May-08 19:32N 17°00' W 061°46'0 0.0
2016-May-08 18:32N 17°00' W 061°46'0 0.0
2016-May-08 17:32N 17°00' W 061°46'0 0.0
2016-May-08 16:32N 17°00' W 061°46'0 0.0
2016-May-08 15:32N 17°00' W 061°46'0 0.0
2016-May-08 14:32N 17°00' W 061°46'0 0.0
2016-May-08 13:32N 17°00' W 061°46'0 0.0
2016-May-08 12:32N 17°00' W 061°46'0 0.0
2016-May-08 11:32N 17°00' W 061°46'0 0.0
2016-May-08 10:32N 17°00' W 061°46'0 0.0
2016-May-08 09:32N 17°00' W 061°46'0 0.0
2016-May-08 08:32N 17°00' W 061°46'0 0.0
2016-May-08 07:32N 17°00' W 061°46'0 0.0
2016-May-08 06:32N 17°00' W 061°46'0 0.0
2016-May-08 05:32N 17°00' W 061°46'0 0.0
2016-May-08 04:32N 17°00' W 061°46'0 0.0
2016-May-08 03:32N 17°00' W 061°46'0 0.0
2016-May-08 02:32N 17°00' W 061°46'0 0.0
2016-May-08 01:32N 17°00' W 061°46'0 0.0
2016-May-08 00:32N 17°00' W 061°46'0 0.0
2016-May-07 23:32N 17°00' W 061°46'0 0.0
2016-May-07 22:32N 17°00' W 061°46'0 0.0
2016-May-07 21:32N 17°00' W 061°46'0 0.0
2016-May-07 20:32N 17°00' W 061°46'0 0.0
2016-May-07 19:32N 17°00' W 061°46'0 0.0
2016-May-07 18:32N 17°00' W 061°46'0 0.0
2016-May-07 17:32N 17°00' W 061°46'0 0.0
2016-May-07 16:32N 17°00' W 061°46'0 0.0
2016-May-07 15:32N 17°00' W 061°46'0 0.0
2016-May-07 14:32N 17°00' W 061°46'0 0.0
2016-May-07 13:32N 17°00' W 061°46'0 0.0
2016-May-07 12:32N 17°00' W 061°46'0 0.0
2016-May-07 11:32N 17°00' W 061°46'0 0.0
2016-May-07 10:32N 17°00' W 061°46'0 0.0
2016-May-07 09:32N 17°00' W 061°46'0 0.0
2016-May-07 08:29N 17°00' W 061°46'0 0.0
2016-May-07 07:32N 17°00' W 061°46'0 0.0
2016-May-07 06:32N 17°00' W 061°46'  
Track history (hours):
 
Tides and Currents Weather Stations Pressure Air Temp Water Temp Dewpoint Dewpoint Depression Visibility Wind Speed Wind Dir Waves Ship Positions

Celtic Spirit

Last reported at 2016-May-17 06:32 UTC. Time now 2016-May-27 10:22 UTC.
Position N 17°30' W 062°10'.
Warning: this ship's position is 10 days out of date.

Length 20 m.

Type: Pleasure craft. MMSI: 235010910.

Date/timePositionNaut miles runAvg speedWind from/ knotsBaromVisibWave heightAir tempDewpointWater temp
2016-May-17 06:32N 17°30' W 062°10'6 6.4
2016-May-17 05:33N 17°26' W 062°04'6 5.8
2016-May-17 04:33N 17°23' W 061°59'6 6.0
2016-May-17 03:33N 17°19' W 061°54'7 7.0
2016-May-17 02:33N 17°15' W 061°48'7 6.7
2016-May-17 01:33N 17°11' W 061°43'7 7.4
2016-May-17 00:33N 17°05' W 061°38'6 6.1
2016-May-16 23:33N 17°00' W 061°42'3 3.3
2016-May-16 22:33N 17°01' W 061°46'0 0.0
2016-May-16 21:33N 17°01' W 061°46'0 0.0
2016-May-16 20:33N 17°01' W 061°46'0 0.0
2016-May-16 19:24N 17°01' W 061°46'0 0.0
2016-May-16 18:33N 17°01' W 061°46'0 0.0
2016-May-16 17:30N 17°01' W 061°46'0 0.0
2016-May-16 16:33N 17°01' W 061°46'0 0.0
2016-May-16 15:33N 17°01' W 061°46'0 0.0
2016-May-16 14:30N 17°01' W 061°46'0 0.0
2016-May-16 13:33N 17°01' W 061°46'0 0.0
2016-May-16 12:33N 17°01' W 061°46'0 0.0
2016-May-16 11:33N 17°01' W 061°46'0 0.0
2016-May-16 10:33N 17°01' W 061°46'0 0.0
2016-May-16 09:33N 17°01' W 061°46'0 0.0
2016-May-16 08:30N 17°01' W 061°46'0 0.0
2016-May-16 07:33N 17°01' W 061°46'0 0.0
2016-May-16 06:33N 17°01' W 061°46'0 0.0
2016-May-16 05:33N 17°01' W 061°46'0 0.0
2016-May-16 04:33N 17°01' W 061°46'0 0.0
2016-May-16 03:33N 17°01' W 061°46'0 0.0
2016-May-16 02:33N 17°01' W 061°46'0 0.0
2016-May-16 01:33N 17°01' W 061°46'0 0.0
2016-May-16 00:33N 17°01' W 061°46'0 0.0
2016-May-15 23:33N 17°01' W 061°46'0 0.0
2016-May-15 22:33N 17°01' W 061°46'0 0.0
2016-May-15 21:33N 17°01' W 061°46'0 0.0
2016-May-15 20:33N 17°01' W 061°46'0 0.0
2016-May-15 19:33N 17°01' W 061°46'0 0.0
2016-May-15 18:33N 17°01' W 061°46'0 0.0
2016-May-15 17:33N 17°01' W 061°46'0 0.0
2016-May-15 16:33N 17°01' W 061°46'0 0.0
2016-May-15 15:33N 17°01' W 061°46'0 0.0
2016-May-15 14:33N 17°01' W 061°46'0 0.0
2016-May-15 13:33N 17°01' W 061°46'0 0.0
2016-May-15 12:33N 17°01' W 061°46'0 0.0
2016-May-15 11:33N 17°01' W 061°46'0 0.0
2016-May-15 10:33N 17°01' W 061°46'0 0.0
2016-May-15 09:33N 17°01' W 061°46'0 0.0
2016-May-15 08:33N 17°01' W 061°46'0 0.0
2016-May-15 07:33N 17°01' W 061°46'0 0.0
2016-May-15 06:33N 17°01' W 061°46'0 0.0
2016-May-15 05:33N 17°01' W 061°46'0 0.0
2016-May-15 04:33N 17°01' W 061°46'0 0.0
2016-May-15 03:33N 17°01' W 061°46'0 0.0
2016-May-15 02:33N 17°01' W 061°46'0 0.0
2016-May-15 01:33N 17°01' W 061°46'0 0.0
2016-May-15 00:33N 17°01' W 061°46'0 0.0
2016-May-14 23:33N 17°01' W 061°46'0 0.0
2016-May-14 22:33N 17°01' W 061°46'0 0.0
2016-May-14 21:33N 17°01' W 061°46'0 0.0
2016-May-14 20:33N 17°01' W 061°46'0 0.0
2016-May-14 19:33N 17°01' W 061°46'0 0.0
2016-May-14 18:33N 17°01' W 061°46'0 0.0
2016-May-14 17:33N 17°01' W 061°46'0 0.0
2016-May-14 16:33N 17°01' W 061°46'0 0.0
2016-May-14 15:33N 17°01' W 061°46'0 0.0
2016-May-14 14:33N 17°01' W 061°46'0 0.0
2016-May-14 13:33N 17°01' W 061°46'0 0.0
2016-May-14 12:33N 17°01' W 061°46'0 0.0
2016-May-14 11:33N 17°01' W 061°46'0 0.0
2016-May-14 10:33N 17°01' W 061°46'0 0.0
2016-May-14 09:33N 17°01' W 061°46'0 0.0
2016-May-14 08:33N 17°01' W 061°46'0 0.0
2016-May-14 07:33N 17°01' W 061°46'0 0.0
2016-May-14 06:33N 17°01' W 061°46'0 0.0
2016-May-14 05:33N 17°01' W 061°46'0 0.0
2016-May-14 04:33N 17°01' W 061°46'0 0.0
2016-May-14 03:33N 17°01' W 061°46'0 0.0
2016-May-14 02:33N 17°01' W 061°46'0 0.0
2016-May-14 01:33N 17°01' W 061°46'0 0.0
2016-May-14 00:33N 17°01' W 061°46'0 0.0
2016-May-13 23:33N 17°01' W 061°46'0 0.0
2016-May-13 22:33N 17°01' W 061°46'0 0.0
2016-May-13 21:33N 17°01' W 061°46'0 0.0
2016-May-13 20:33N 17°01' W 061°46'0 0.3
2016-May-13 19:31N 17°00' W 061°46'0 0.0
2016-May-13 18:31N 17°00' W 061°46'0 0.0
2016-May-13 17:31N 17°00' W 061°46'0 0.0
2016-May-13 16:31N 17°00' W 061°46'0 0.0
2016-May-13 15:31N 17°00' W 061°46'0 0.0
2016-May-13 14:31N 17°00' W 061°46'0 0.0
2016-May-13 13:31N 17°00' W 061°46'0 0.0
2016-May-13 12:31N 17°00' W 061°46'0 0.0
2016-May-13 11:31N 17°00' W 061°46'0 0.0
2016-May-13 10:31N 17°00' W 061°46'0 0.0
2016-May-13 09:31N 17°00' W 061°46'0 0.0
2016-May-13 08:31N 17°00' W 061°46'0 0.0
2016-May-13 07:31N 17°00' W 061°46'0 0.0
2016-May-13 06:31N 17°00' W 061°46'0 0.0
2016-May-13 05:31N 17°00' W 061°46'0 0.0
2016-May-13 04:31N 17°00' W 061°46'0 0.0
2016-May-13 03:31N 17°00' W 061°46'0 0.0
2016-May-13 02:28N 17°00' W 061°46'0 0.0
2016-May-13 01:31N 17°00' W 061°46'0 0.0
2016-May-13 00:31N 17°00' W 061°46'0 0.0
2016-May-12 23:31N 17°00' W 061°46'0 0.0
2016-May-12 22:31N 17°00' W 061°46'0 0.0
2016-May-12 21:31N 17°00' W 061°46'0 0.0
2016-May-12 20:31N 17°00' W 061°46'0 0.0
2016-May-12 19:31N 17°00' W 061°46'0 0.0
2016-May-12 18:31N 17°00' W 061°46'0 0.0
2016-May-12 17:31N 17°00' W 061°46'0 0.0
2016-May-12 16:31N 17°00' W 061°46'0 0.0
2016-May-12 15:31N 17°00' W 061°46'0 0.0
2016-May-12 14:32N 17°00' W 061°46'0 0.0
2016-May-12 13:32N 17°00' W 061°46'0 0.0
2016-May-12 12:32N 17°00' W 061°46'0 0.0
2016-May-12 11:32N 17°00' W 061°46'0 0.0
2016-May-12 10:32N 17°00' W 061°46'0 0.0
2016-May-12 09:32N 17°00' W 061°46'0 0.0
2016-May-12 08:32N 17°00' W 061°46'0 0.0
2016-May-12 07:32N 17°00' W 061°46'0 0.0
2016-May-12 06:32N 17°00' W 061°46'0 0.0
2016-May-12 05:32N 17°00' W 061°46'0 0.0
2016-May-12 04:32N 17°00' W 061°46'0 0.0
2016-May-12 03:32N 17°00' W 061°46'0 0.0
2016-May-12 02:32N 17°00' W 061°46'0 0.0
2016-May-12 01:32N 17°00' W 061°46'0 0.0
2016-May-12 00:32N 17°00' W 061°46'0 0.0
2016-May-11 23:32N 17°00' W 061°46'0 0.0
2016-May-11 22:32N 17°00' W 061°46'0 0.0
2016-May-11 21:32N 17°00' W 061°46'0 0.0
2016-May-11 20:32N 17°00' W 061°46'0 0.2
2016-May-11 19:32N 17°00' W 061°46'0 0.0
2016-May-11 18:32N 17°00' W 061°46'0 0.0
2016-May-11 17:32N 17°00' W 061°46'0 0.0
2016-May-11 16:29N 17°00' W 061°46'0 0.0
2016-May-11 15:32N 17°00' W 061°46'0 0.0
2016-May-11 14:32N 17°00' W 061°46'0 0.0
2016-May-11 13:32N 17°00' W 061°46'0 0.0
2016-May-11 12:32N 17°00' W 061°46'0 0.0
2016-May-11 11:32N 17°00' W 061°46'0 0.0
2016-May-11 10:32N 17°00' W 061°46'0 0.0
2016-May-11 09:32N 17°00' W 061°46'0 0.0
2016-May-11 08:29N 17°00' W 061°46'0 0.0
2016-May-11 07:32N 17°00' W 061°46'0 0.0
2016-May-11 06:32N 17°00' W 061°46'0 0.0
2016-May-11 05:32N 17°00' W 061°46'0 0.0
2016-May-11 04:29N 17°00' W 061°46'0 0.0
2016-May-11 03:32N 17°00' W 061°46'0 0.0
2016-May-11 02:32N 17°00' W 061°46'0 0.0
2016-May-11 01:32N 17°00' W 061°46'0 0.0
2016-May-11 00:32N 17°00' W 061°46'0 0.0
2016-May-10 23:32N 17°00' W 061°46'0 0.0
2016-May-10 22:32N 17°00' W 061°46'0 0.0
2016-May-10 21:32N 17°00' W 061°46'0 0.0
2016-May-10 20:32N 17°00' W 061°46'0 0.0
2016-May-10 19:32N 17°00' W 061°46'0 0.0
2016-May-10 18:32N 17°00' W 061°46'0 0.0
2016-May-10 17:32N 17°00' W 061°46'0 0.0
2016-May-10 16:32N 17°00' W 061°46'0 0.0
2016-May-10 15:32N 17°00' W 061°46'0 0.0
2016-May-10 14:32N 17°00' W 061°46'0 0.0
2016-May-10 13:32N 17°00' W 061°46'0 0.0
2016-May-10 12:32N 17°00' W 061°46'0 0.0
2016-May-10 11:32N 17°00' W 061°46'0 0.0
2016-May-10 10:32N 17°00' W 061°46'0 0.0
2016-May-10 09:32N 17°00' W 061°46'0 0.0
2016-May-10 08:32N 17°00' W 061°46'0 0.0
2016-May-10 07:32N 17°00' W 061°46'0 0.0
2016-May-10 06:32N 17°00' W 061°46'0 0.0
2016-May-10 05:32N 17°00' W 061°46'0 0.0
2016-May-10 04:32N 17°00' W 061°46'0 0.0
2016-May-10 03:32N 17°00' W 061°46'0 0.0
2016-May-10 02:32N 17°00' W 061°46'0 0.0
2016-May-10 01:32N 17°00' W 061°46'0 0.0
2016-May-10 00:32N 17°00' W 061°46'0 0.0
2016-May-09 23:32N 17°00' W 061°46'0 0.0
2016-May-09 22:32N 17°00' W 061°46'0 0.0
2016-May-09 21:32N 17°00' W 061°46'0 0.0
2016-May-09 20:32N 17°00' W 061°46'0 0.0
2016-May-09 19:32N 17°00' W 061°46'0 0.0
2016-May-09 18:32N 17°00' W 061°46'0 0.0
2016-May-09 17:32N 17°00' W 061°46'0 0.0
2016-May-09 16:32N 17°00' W 061°46'0 0.0
2016-May-09 15:32N 17°00' W 061°46'0 0.0
2016-May-09 14:32N 17°00' W 061°46'0 0.0
2016-May-09 13:32N 17°00' W 061°46'0 0.0
2016-May-09 12:32N 17°00' W 061°46'0 0.0
2016-May-09 11:32N 17°00' W 061°46'0 0.0
2016-May-09 10:32N 17°00' W 061°46'0 0.0
2016-May-09 09:32N 17°00' W 061°46'0 0.0
2016-May-09 08:32N 17°00' W 061°46'0 0.0
2016-May-09 07:32N 17°00' W 061°46'0 0.0
2016-May-09 06:32N 17°00' W 061°46'0 0.0
2016-May-09 05:32N 17°00' W 061°46'0 0.0
2016-May-09 04:32N 17°00' W 061°46'0 0.0
2016-May-09 03:32N 17°00' W 061°46'0 0.0
2016-May-09 02:32N 17°00' W 061°46'0 0.0
2016-May-09 01:32N 17°00' W 061°46'0 0.0
2016-May-09 00:32N 17°00' W 061°46'0 0.0
2016-May-08 23:32N 17°00' W 061°46'0 0.0
2016-May-08 22:32N 17°00' W 061°46'0 0.0
2016-May-08 21:32N 17°00' W 061°46'0 0.0
2016-May-08 20:32N 17°00' W 061°46'0 0.0
2016-May-08 19:32N 17°00' W 061°46'0 0.0
2016-May-08 18:32N 17°00' W 061°46'0 0.0
2016-May-08 17:32N 17°00' W 061°46'0 0.0
2016-May-08 16:32N 17°00' W 061°46'0 0.0
2016-May-08 15:32N 17°00' W 061°46'0 0.0
2016-May-08 14:32N 17°00' W 061°46'0 0.0
2016-May-08 13:32N 17°00' W 061°46'0 0.0
2016-May-08 12:32N 17°00' W 061°46'0 0.0
2016-May-08 11:32N 17°00' W 061°46'0 0.0
2016-May-08 10:32N 17°00' W 061°46'0 0.0
2016-May-08 09:32N 17°00' W 061°46'0 0.0
2016-May-08 08:32N 17°00' W 061°46'0 0.0
2016-May-08 07:32N 17°00' W 061°46'0 0.0
2016-May-08 06:32N 17°00' W 061°46'0 0.0
2016-May-08 05:32N 17°00' W 061°46'0 0.0
2016-May-08 04:32N 17°00' W 061°46'0 0.0
2016-May-08 03:32N 17°00' W 061°46'0 0.0
2016-May-08 02:32N 17°00' W 061°46'0 0.0
2016-May-08 01:32N 17°00' W 061°46'0 0.0
2016-May-08 00:32N 17°00' W 061°46'0 0.0
2016-May-07 23:32N 17°00' W 061°46'0 0.0
2016-May-07 22:32N 17°00' W 061°46'0 0.0
2016-May-07 21:32N 17°00' W 061°46'0 0.0
2016-May-07 20:32N 17°00' W 061°46'0 0.0
2016-May-07 19:32N 17°00' W 061°46'0 0.0
2016-May-07 18:32N 17°00' W 061°46'0 0.0
2016-May-07 17:32N 17°00' W 061°46'0 0.0
2016-May-07 16:32N 17°00' W 061°46'0 0.0
2016-May-07 15:32N 17°00' W 061°46'0 0.0
2016-May-07 14:32N 17°00' W 061°46'0 0.0
2016-May-07 13:32N 17°00' W 061°46'0 0.0
2016-May-07 12:32N 17°00' W 061°46'0 0.0
2016-May-07 11:32N 17°00' W 061°46'0 0.0
2016-May-07 10:32N 17°00' W 061°46'0 0.0
2016-May-07 09:32N 17°00' W 061°46'0 0.0
2016-May-07 08:29N 17°00' W 061°46'0 0.0
2016-May-07 07:32N 17°00' W 061°46'0 0.0
2016-May-07 06:32N 17°00' W 061°46'  

Dump ship's entire track history